Skellingthorpe, United Kingdom
Current Conditions -  °F | °C
As of 5:50 PM on Sunday 21 Dec 2014 (Local Time) from EGXP Reporting Station
Few Clouds Few Clouds  
Wind Chill: 50°   Ceiling: Unl
Heat Index: 50°   Visibility: 6mi
Dew Point: 46°   Wind: 25mph
Humidity: 87%   Direction: 240°WSW
Pressure: 29.97"   Gusts: NA
Location:  53.24°N, 0.62°W
Report Text: EGXP 211750Z AUTO 24022KT 9999 // FEW050/// 10/08 Q1015
Loading
Personal Weather Stations






























Interactive Weather Map New forecast layout! Learn more

10-Day Weather Forecast

Advertisements
Track Severe Weather on mobile